Time;durP1;ratioP1;P1;durP2;ratioP2;P2;SDS_P1;SDS_P2;PMS_P1;PMS_P2;Temp;Humidity;BMP_temperature;BMP_pressure;BME280_temperature;BME280_humidity;BME280_pressure;Samples;Min_cycle;Max_cycle;Signal;HPM_P1;HPM_P2
2021/12/26 00:01:04;;;;;;;4.03;2.80;;;;;;;;;;5032729;28;20502;-65
2021/12/26 00:03:31;;;;;;;5.13;3.30;;;;;;;;;;5034261;28;20190;-65
2021/12/26 00:05:58;;;;;;;3.83;2.93;;;;;;;;;;5032673;28;20954;-65
2021/12/26 00:08:25;;;;;;;3.97;2.93;;;;;;;;;;5033796;28;20421;-65
2021/12/26 00:10:51;;;;;;;2.93;2.60;;;;;;;;;;5034277;28;20464;-65
2021/12/26 00:13:17;;;;;;;7.83;3.00;;;;;;;;;;5033978;28;20408;-65
2021/12/26 00:15:43;;;;;;;3.57;2.90;;;;;;;;;;5034204;28;20794;-65
2021/12/26 00:18:10;;;;;;;4.50;2.57;;;;;;;;;;5032542;28;20429;-65
2021/12/26 00:20:36;;;;;;;4.27;2.83;;;;;;;;;;5033662;28;20417;-65
2021/12/26 00:23:02;;;;;;;2.83;2.53;;;;;;;;;;5032588;28;20454;-65
2021/12/26 00:25:28;;;;;;;5.47;2.60;;;;;;;;;;5033663;28;20817;-65
2021/12/26 00:27:54;;;;;;;4.30;3.10;;;;;;;;;;5033744;28;20406;-65
2021/12/26 00:30:21;;;;;;;3.40;2.50;;;;;;;;;;5032380;28;20308;-65
2021/12/26 00:32:47;;;;;;;4.30;3.13;;;;;;;;;;5033808;28;20666;-65
2021/12/26 00:35:15;;;;;;;3.17;2.30;;;;;;;;;;5033920;28;20455;-65
2021/12/26 00:37:41;;;;;;;4.30;2.90;;;;;;;;;;5032199;28;20802;-65
2021/12/26 00:40:09;;;;;;;3.67;2.80;;;;;;;;;;5032335;28;20418;-65
2021/12/26 00:42:35;;;;;;;4.73;3.33;;;;;;;;;;5033514;28;20554;-65
2021/12/26 00:45:01;;;;;;;2.37;2.17;;;;;;;;;;5032043;28;20802;-66
2021/12/26 00:47:29;;;;;;;5.73;2.73;;;;;;;;;;5032316;28;20432;-65
2021/12/26 00:49:56;;;;;;;3.77;2.57;;;;;;;;;;5031990;28;20422;-65
2021/12/26 00:52:22;;;;;;;3.63;2.77;;;;;;;;;;5033600;28;20440;-65
2021/12/26 00:54:48;;;;;;;3.53;2.60;;;;;;;;;;5031987;28;20479;-65
2021/12/26 00:57:14;;;;;;;4.50;2.70;;;;;;;;;;5037448;28;20413;-65
2021/12/26 00:59:40;;;;;;;3.93;2.50;;;;;;;;;;5037386;28;20188;-66
2021/12/26 01:02:06;;;;;;;3.70;2.90;;;;;;;;;;5037543;28;20420;-65
2021/12/26 01:04:32;;;;;;;3.83;3.17;;;;;;;;;;5036030;28;20192;-66
2021/12/26 01:06:59;;;;;;;3.47;2.50;;;;;;;;;;5035574;28;20758;-65
2021/12/26 01:09:28;;;;;;;3.90;2.60;;;;;;;;;;5037455;28;20175;-65
2021/12/26 01:11:59;;;;;;;5.33;2.67;;;;;;;;;;5035643;28;20563;-65
2021/12/26 01:14:29;;;;;;;3.77;2.87;;;;;;;;;;5035676;28;20413;-65
2021/12/26 01:17:04;;;;;;;4.63;2.70;;;;;;;;;;5036790;28;20431;-65
2021/12/26 01:19:33;;;;;;;3.43;2.63;;;;;;;;;;5037068;28;20437;-65
2021/12/26 01:21:59;;;;;;;4.57;2.73;;;;;;;;;;5036874;28;20919;-65
2021/12/26 01:24:25;;;;;;;2.73;2.43;;;;;;;;;;5036713;28;20418;-65
2021/12/26 01:26:51;;;;;;;4.73;3.10;;;;;;;;;;5035355;28;20430;-65
2021/12/26 01:29:17;;;;;;;3.20;2.67;;;;;;;;;;5037368;28;20277;-65
2021/12/26 01:31:43;;;;;;;3.50;2.73;;;;;;;;;;5036560;28;20212;-65
2021/12/26 01:34:09;;;;;;;3.33;2.63;;;;;;;;;;5037012;28;20647;-65
2021/12/26 01:36:35;;;;;;;3.50;2.87;;;;;;;;;;5035064;28;20969;-65
2021/12/26 01:39:02;;;;;;;3.40;2.57;;;;;;;;;;5036654;28;20440;-65
2021/12/26 01:41:28;;;;;;;3.93;2.40;;;;;;;;;;5036459;28;20411;-65
2021/12/26 01:44:04;;;;;;;3.23;2.60;;;;;;;;;;5034966;28;20432;-65
2021/12/26 01:46:30;;;;;;;3.67;3.00;;;;;;;;;;5037157;28;20433;-65
2021/12/26 01:49:07;;;;;;;4.43;3.10;;;;;;;;;;5034847;28;20436;-65
2021/12/26 01:51:33;;;;;;;4.67;2.93;;;;;;;;;;5036269;28;20210;-65
2021/12/26 01:54:05;;;;;;;4.53;2.90;;;;;;;;;;5036200;28;20424;-65
2021/12/26 01:56:31;;;;;;;4.07;2.60;;;;;;;;;;5034925;28;20429;-65
2021/12/26 01:58:57;;;;;;;4.53;2.90;;;;;;;;;;5034721;28;20950;-65
2021/12/26 02:01:23;;;;;;;3.80;3.10;;;;;;;;;;5034748;28;20418;-65
2021/12/26 02:03:49;;;;;;;3.30;2.50;;;;;;;;;;5034982;28;20424;-65
2021/12/26 02:06:16;;;;;;;4.90;2.87;;;;;;;;;;5035543;28;20433;-65
2021/12/26 02:08:42;;;;;;;2.83;2.37;;;;;;;;;;5035908;28;20498;-65
2021/12/26 02:11:08;;;;;;;5.30;2.37;;;;;;;;;;5035865;28;20573;-65
2021/12/26 02:13:37;;;;;;;4.10;2.93;;;;;;;;;;5035923;28;20181;-65
2021/12/26 02:16:03;;;;;;;4.43;3.07;;;;;;;;;;5034305;28;20448;-65
2021/12/26 02:18:29;;;;;;;5.43;2.97;;;;;;;;;;5034537;28;20465;-65
2021/12/26 02:24:14;;;;;;;5.43;2.90;;;;;;;;;;5033584;28;20681;-66
2021/12/26 02:29:25;;;;;;;5.73;3.43;;;;;;;;;;5035813;28;20390;-65
2021/12/26 02:31:51;;;;;;;3.50;3.10;;;;;;;;;;5034340;28;20567;-65
2021/12/26 02:34:17;;;;;;;3.43;3.03;;;;;;;;;;5036486;28;20889;-65
2021/12/26 02:36:43;;;;;;;4.83;3.30;;;;;;;;;;5036752;28;20460;-65
2021/12/26 02:39:09;;;;;;;4.37;2.80;;;;;;;;;;5035892;28;20406;-65
2021/12/26 02:41:35;;;;;;;4.27;3.00;;;;;;;;;;5036458;28;20422;-65
2021/12/26 02:44:01;;;;;;;4.47;3.10;;;;;;;;;;5035624;28;20628;-65
2021/12/26 02:46:28;;;;;;;6.07;3.17;;;;;;;;;;5034127;28;20459;-65
2021/12/26 02:48:54;;;;;;;4.33;3.00;;;;;;;;;;5033859;28;20426;-65
2021/12/26 02:51:20;;;;;;;5.63;3.30;;;;;;;;;;5033735;28;20468;-65
2021/12/26 02:53:47;;;;;;;2.97;2.37;;;;;;;;;;5034955;28;20175;-65
2021/12/26 02:56:13;;;;;;;3.97;3.00;;;;;;;;;;5034899;28;20812;-65
2021/12/26 02:58:39;;;;;;;4.97;3.93;;;;;;;;;;5033553;28;20429;-65
2021/12/26 03:01:08;;;;;;;4.80;3.43;;;;;;;;;;5034914;28;20413;-65
2021/12/26 03:03:34;;;;;;;3.70;2.87;;;;;;;;;;5034875;28;20196;-65
2021/12/26 03:06:02;;;;;;;4.73;3.07;;;;;;;;;;5033288;28;20473;-65
2021/12/26 03:08:28;;;;;;;4.40;2.97;;;;;;;;;;5034854;28;20410;-66
2021/12/26 03:10:55;;;;;;;3.77;3.17;;;;;;;;;;5034616;28;20474;-65
2021/12/26 03:13:21;;;;;;;3.90;3.20;;;;;;;;;;5034540;28;20189;-65
2021/12/26 03:15:47;;;;;;;3.40;2.93;;;;;;;;;;5033346;28;20465;-65
2021/12/26 03:18:14;;;;;;;3.30;2.97;;;;;;;;;;5034264;28;20447;-65
2021/12/26 03:20:42;;;;;;;5.07;3.07;;;;;;;;;;5034472;28;20414;-65
2021/12/26 03:23:09;;;;;;;4.47;2.97;;;;;;;;;;5033095;28;20862;-65
2021/12/26 03:25:35;;;;;;;3.67;2.97;;;;;;;;;;5034508;28;20483;-65
2021/12/26 03:28:03;;;;;;;3.77;3.20;;;;;;;;;;5033243;28;20426;-65
2021/12/26 03:30:30;;;;;;;4.07;3.37;;;;;;;;;;5034642;28;20830;-65
2021/12/26 03:32:57;;;;;;;4.10;3.13;;;;;;;;;;5034616;28;20897;-65
2021/12/26 03:35:24;;;;;;;6.23;3.37;;;;;;;;;;5033986;28;20495;-65
2021/12/26 03:37:50;;;;;;;4.23;3.53;;;;;;;;;;5034469;28;20421;-65
2021/12/26 03:40:16;;;;;;;3.97;2.93;;;;;;;;;;5034180;28;20410;-65
2021/12/26 03:42:43;;;;;;;3.87;3.13;;;;;;;;;;5034094;28;20801;-65
2021/12/26 03:45:09;;;;;;;3.87;2.93;;;;;;;;;;5032640;28;20438;-66
2021/12/26 03:47:35;;;;;;;4.40;3.80;;;;;;;;;;5034393;28;20910;-65
2021/12/26 03:50:01;;;;;;;4.13;3.13;;;;;;;;;;5033707;28;20794;-65
2021/12/26 03:52:27;;;;;;;4.13;3.17;;;;;;;;;;5033877;28;20464;-65
2021/12/26 03:54:54;;;;;;;4.50;3.07;;;;;;;;;;5032557;28;20438;-65
2021/12/26 03:57:20;;;;;;;4.73;3.87;;;;;;;;;;5033915;28;20406;-65
2021/12/26 03:59:46;;;;;;;3.73;3.30;;;;;;;;;;5032691;28;20425;-65
2021/12/26 04:02:15;;;;;;;5.63;4.00;;;;;;;;;;5034040;28;20909;-65
2021/12/26 04:04:42;;;;;;;4.37;3.10;;;;;;;;;;5032645;28;20418;-65
2021/12/26 04:07:08;;;;;;;5.30;3.60;;;;;;;;;;5033699;28;20456;-65
2021/12/26 04:09:34;;;;;;;4.67;3.20;;;;;;;;;;5032465;28;20778;-65
2021/12/26 04:12:00;;;;;;;3.23;2.93;;;;;;;;;;5033670;28;20509;-65
2021/12/26 04:14:26;;;;;;;5.07;3.93;;;;;;;;;;5034107;28;20211;-65
2021/12/26 04:16:52;;;;;;;4.20;3.60;;;;;;;;;;5033888;28;20475;-65
2021/12/26 04:19:18;;;;;;;5.40;3.57;;;;;;;;;;5033767;28;20175;-65
2021/12/26 04:21:44;;;;;;;4.27;3.30;;;;;;;;;;5032273;28;20233;-65
2021/12/26 04:24:10;;;;;;;4.17;3.40;;;;;;;;;;5033595;28;20238;-66
2021/12/26 04:26:36;;;;;;;3.83;3.40;;;;;;;;;;5033532;28;20434;-65
2021/12/26 04:29:02;;;;;;;6.33;3.43;;;;;;;;;;5033550;28;20410;-65
2021/12/26 04:31:28;;;;;;;5.37;3.53;;;;;;;;;;5036787;28;20463;-65
2021/12/26 04:33:54;;;;;;;5.13;3.70;;;;;;;;;;5036441;28;20428;-65
2021/12/26 04:36:21;;;;;;;5.70;3.30;;;;;;;;;;5036270;28;20274;-65
2021/12/26 04:38:47;;;;;;;4.87;3.53;;;;;;;;;;5037452;28;20171;-65
2021/12/26 04:41:13;;;;;;;5.77;3.63;;;;;;;;;;5037743;28;20424;-65
2021/12/26 04:43:40;;;;;;;4.20;2.90;;;;;;;;;;5037578;28;20549;-65
2021/12/26 04:46:07;;;;;;;6.07;3.30;;;;;;;;;;5036252;28;20203;-65
2021/12/26 04:48:33;;;;;;;4.17;3.50;;;;;;;;;;5037445;28;20464;-65
2021/12/26 04:51:00;;;;;;;4.70;3.23;;;;;;;;;;5037162;28;20459;-65
2021/12/26 04:53:26;;;;;;;3.33;2.97;;;;;;;;;;5037375;28;20418;-65
2021/12/26 04:55:52;;;;;;;2.80;2.53;;;;;;;;;;5037704;28;20442;-65
2021/12/26 04:58:18;;;;;;;4.90;3.20;;;;;;;;;;5035945;28;20521;-65
2021/12/26 05:00:44;;;;;;;3.90;3.23;;;;;;;;;;5046931;22;20997;-66
2021/12/26 05:03:10;;;;;;;4.03;3.00;;;;;;;;;;5032622;28;20641;-65
2021/12/26 05:05:36;;;;;;;4.50;3.07;;;;;;;;;;5018057;28;20262;-66
2021/12/26 05:08:03;;;;;;;4.07;3.13;;;;;;;;;;5032370;28;20186;-65
2021/12/26 05:10:29;;;;;;;4.70;3.00;;;;;;;;;;5032331;28;20549;-66
2021/12/26 05:12:59;;;;;;;4.40;3.13;;;;;;;;;;5032543;28;20423;-65
2021/12/26 05:15:25;;;;;;;3.73;2.70;;;;;;;;;;5017214;28;20492;-66
2021/12/26 05:17:51;;;;;;;5.90;2.50;;;;;;;;;;5017082;28;20769;-65
2021/12/26 05:20:21;;;;;;;4.77;3.50;;;;;;;;;;5017059;28;20434;-66
2021/12/26 05:22:48;;;;;;;5.57;3.17;;;;;;;;;;5032338;28;20406;-65
2021/12/26 05:25:14;;;;;;;3.67;2.73;;;;;;;;;;5017203;28;20411;-66
2021/12/26 05:27:40;;;;;;;4.10;2.70;;;;;;;;;;5016892;28;20410;-65
2021/12/26 05:30:08;;;;;;;3.70;2.80;;;;;;;;;;5016913;28;20427;-66
2021/12/26 05:32:34;;;;;;;4.97;3.00;;;;;;;;;;5017077;28;20895;-65
2021/12/26 05:35:00;;;;;;;6.63;3.00;;;;;;;;;;5017030;28;20413;-65
2021/12/26 05:37:26;;;;;;;5.07;3.23;;;;;;;;;;5017021;28;20418;-65
2021/12/26 05:39:52;;;;;;;3.97;3.47;;;;;;;;;;5032100;28;20462;-65
2021/12/26 05:42:18;;;;;;;3.23;2.90;;;;;;;;;;5017030;28;20426;-65
2021/12/26 05:44:44;;;;;;;3.07;2.77;;;;;;;;;;5017280;28;20180;-65
2021/12/26 05:47:10;;;;;;;3.57;3.00;;;;;;;;;;5032245;28;20226;-65
2021/12/26 05:49:36;;;;;;;5.07;3.00;;;;;;;;;;5016607;28;20431;-65
2021/12/26 05:52:02;;;;;;;4.07;3.50;;;;;;;;;;5016632;28;20458;-65
2021/12/26 05:54:28;;;;;;;4.87;2.40;;;;;;;;;;5016873;28;20180;-66
2021/12/26 05:56:54;;;;;;;3.50;2.77;;;;;;;;;;5016903;28;20506;-65
2021/12/26 05:59:20;;;;;;;3.67;3.17;;;;;;;;;;5031957;28;20263;-66
2021/12/26 06:01:46;;;;;;;3.47;3.10;;;;;;;;;;5017261;28;20169;-65
2021/12/26 06:04:12;;;;;;;5.60;3.07;;;;;;;;;;5017038;28;20255;-66
2021/12/26 06:06:38;;;;;;;4.40;3.23;;;;;;;;;;5032632;28;20652;-65
2021/12/26 06:09:04;;;;;;;3.57;2.90;;;;;;;;;;5017019;28;20424;-65
2021/12/26 06:11:30;;;;;;;4.23;3.20;;;;;;;;;;5017114;28;20212;-65
2021/12/26 06:13:56;;;;;;;5.33;3.80;;;;;;;;;;5016656;28;21030;-65
2021/12/26 06:16:22;;;;;;;4.20;2.63;;;;;;;;;;5031857;28;20270;-65
2021/12/26 06:18:48;;;;;;;2.93;2.70;;;;;;;;;;5031502;28;20180;-65
2021/12/26 06:21:14;;;;;;;5.00;3.23;;;;;;;;;;5016146;28;20430;-65
2021/12/26 06:23:40;;;;;;;4.10;3.20;;;;;;;;;;5016662;28;20415;-65
2021/12/26 06:26:06;;;;;;;5.03;3.13;;;;;;;;;;5017087;28;20518;-65
2021/12/26 06:28:32;;;;;;;3.93;3.13;;;;;;;;;;5016871;28;20186;-65
2021/12/26 06:30:58;;;;;;;4.97;3.60;;;;;;;;;;5016067;28;20699;-65
2021/12/26 06:33:24;;;;;;;4.90;2.90;;;;;;;;;;5016310;28;20534;-65
2021/12/26 06:35:50;;;;;;;4.20;3.07;;;;;;;;;;5016318;28;20689;-65
2021/12/26 06:38:16;;;;;;;3.80;2.90;;;;;;;;;;5031367;28;20539;-65
2021/12/26 06:40:43;;;;;;;3.53;3.00;;;;;;;;;;5031070;28;20524;-65
2021/12/26 06:43:11;;;;;;;3.73;2.83;;;;;;;;;;5016451;28;20420;-65
2021/12/26 06:45:37;;;;;;;3.63;2.80;;;;;;;;;;5031767;28;20433;-65
2021/12/26 06:48:06;;;;;;;4.43;3.27;;;;;;;;;;5015960;28;20787;-65
2021/12/26 06:50:32;;;;;;;5.30;3.10;;;;;;;;;;5030902;28;20466;-66
2021/12/26 06:52:58;;;;;;;3.57;3.07;;;;;;;;;;5030228;28;20415;-66
2021/12/26 06:55:24;;;;;;;3.47;2.67;;;;;;;;;;5015507;28;20439;-64
2021/12/26 06:57:50;;;;;;;4.17;3.03;;;;;;;;;;5030648;28;20434;-65
2021/12/26 07:00:17;;;;;;;3.93;3.30;;;;;;;;;;5015116;28;20238;-65
2021/12/26 07:02:43;;;;;;;5.10;3.17;;;;;;;;;;5015500;28;20261;-65
2021/12/26 07:05:11;;;;;;;4.67;3.20;;;;;;;;;;5015522;28;20403;-66
2021/12/26 07:07:38;;;;;;;5.63;3.17;;;;;;;;;;5030258;28;20423;-65
2021/12/26 07:10:04;;;;;;;3.77;3.07;;;;;;;;;;5016054;28;20562;-66
2021/12/26 07:12:30;;;;;;;4.43;3.10;;;;;;;;;;5015006;28;20997;-65
2021/12/26 07:14:56;;;;;;;2.83;2.57;;;;;;;;;;5030483;28;20411;-66
2021/12/26 07:17:22;;;;;;;4.90;3.00;;;;;;;;;;5015579;28;20257;-65
2021/12/26 07:19:48;;;;;;;3.27;2.73;;;;;;;;;;5014963;28;20192;-65
2021/12/26 07:22:14;;;;;;;5.63;3.17;;;;;;;;;;5015286;28;20202;-65
2021/12/26 07:24:43;;;;;;;4.07;3.37;;;;;;;;;;5030185;28;20450;-65
2021/12/26 07:27:10;;;;;;;7.10;3.20;;;;;;;;;;5015109;28;20848;-65
2021/12/26 07:29:36;;;;;;;3.40;3.10;;;;;;;;;;5015132;28;20433;-66
2021/12/26 07:32:02;;;;;;;3.50;2.90;;;;;;;;;;5015158;28;20870;-65
2021/12/26 07:34:28;;;;;;;2.93;2.63;;;;;;;;;;5015138;28;20203;-65
2021/12/26 07:36:54;;;;;;;3.70;3.10;;;;;;;;;;5015573;28;20894;-66
2021/12/26 07:39:20;;;;;;;4.80;3.20;;;;;;;;;;5015542;28;20196;-65
2021/12/26 07:41:46;;;;;;;5.57;2.93;;;;;;;;;;5015644;28;20187;-65
2021/12/26 07:44:12;;;;;;;5.20;3.50;;;;;;;;;;5015006;28;20235;-66
2021/12/26 07:46:38;;;;;;;4.73;3.30;;;;;;;;;;5015476;28;20447;-65
2021/12/26 07:49:04;;;;;;;3.70;2.80;;;;;;;;;;5015549;28;20187;-65
2021/12/26 07:51:30;;;;;;;6.10;3.00;;;;;;;;;;5014715;28;20462;-66
2021/12/26 07:54:01;;;;;;;4.60;3.37;;;;;;;;;;5014877;28;20403;-66
2021/12/26 07:56:27;;;;;;;3.57;3.27;;;;;;;;;;5015348;28;20394;-65
2021/12/26 07:58:53;;;;;;;3.30;3.00;;;;;;;;;;5014951;28;20403;-65
2021/12/26 08:01:19;;;;;;;4.63;3.40;;;;;;;;;;5015013;28;21017;-66
2021/12/26 08:03:46;;;;;;;7.50;4.03;;;;;;;;;;5030377;28;20207;-66
2021/12/26 08:06:16;;;;;;;3.73;3.20;;;;;;;;;;5014305;28;20777;-66
2021/12/26 08:08:42;;;;;;;5.03;4.00;;;;;;;;;;5015709;28;20387;-66
2021/12/26 08:11:08;;;;;;;4.33;3.33;;;;;;;;;;5030104;28;20462;-66
2021/12/26 08:13:34;;;;;;;6.83;3.43;;;;;;;;;;5014879;28;20410;-66
2021/12/26 08:16:01;;;;;;;5.50;3.60;;;;;;;;;;5014887;28;20486;-66
2021/12/26 08:18:26;;;;;;;4.20;3.23;;;;;;;;;;5014639;28;20775;-66
2021/12/26 08:20:52;;;;;;;5.30;3.43;;;;;;;;;;5014723;28;20427;-66
2021/12/26 08:23:18;;;;;;;4.30;3.43;;;;;;;;;;5014690;28;20557;-65
2021/12/26 08:25:45;;;;;;;6.17;3.50;;;;;;;;;;5014580;28;20198;-66
2021/12/26 08:28:11;;;;;;;5.60;3.40;;;;;;;;;;5029494;28;20423;-65
2021/12/26 08:30:37;;;;;;;4.10;3.23;;;;;;;;;;5014128;28;21036;-66
2021/12/26 08:33:06;;;;;;;5.50;3.37;;;;;;;;;;5029837;28;20771;-66
2021/12/26 08:35:33;;;;;;;3.87;3.03;;;;;;;;;;5029202;28;20510;-66
2021/12/26 08:37:59;;;;;;;4.20;3.43;;;;;;;;;;5013952;28;20461;-65
2021/12/26 08:40:25;;;;;;;4.20;3.07;;;;;;;;;;5013840;28;20513;-66
2021/12/26 08:42:51;;;;;;;6.63;3.60;;;;;;;;;;5029214;28;20447;-66
2021/12/26 08:45:17;;;;;;;6.53;4.00;;;;;;;;;;5014147;28;20453;-66
2021/12/26 08:47:43;;;;;;;4.30;3.53;;;;;;;;;;5014911;28;20406;-66
2021/12/26 08:50:10;;;;;;;5.70;3.77;;;;;;;;;;5014518;28;20528;-66
2021/12/26 08:52:36;;;;;;;4.20;3.50;;;;;;;;;;5029511;28;20920;-66
2021/12/26 08:55:02;;;;;;;4.70;3.20;;;;;;;;;;5014740;28;20426;-65
2021/12/26 08:57:30;;;;;;;7.03;3.80;;;;;;;;;;5029524;28;20418;-66
2021/12/26 08:59:56;;;;;;;4.77;3.70;;;;;;;;;;5014297;28;20450;-66
2021/12/26 09:02:22;;;;;;;4.90;4.00;;;;;;;;;;5029528;28;20517;-66
2021/12/26 09:04:48;;;;;;;5.33;3.63;;;;;;;;;;5014745;28;20187;-66
2021/12/26 09:07:14;;;;;;;4.03;3.13;;;;;;;;;;5014122;28;20183;-66
2021/12/26 09:09:40;;;;;;;4.70;3.90;;;;;;;;;;5014191;28;20426;-66
2021/12/26 09:12:07;;;;;;;5.90;4.50;;;;;;;;;;5014250;28;20454;-66
2021/12/26 09:14:33;;;;;;;7.53;4.23;;;;;;;;;;5029324;28;20414;-66
2021/12/26 09:16:59;;;;;;;6.17;4.30;;;;;;;;;;5015738;28;20446;-66
2021/12/26 09:19:28;;;;;;;5.10;4.10;;;;;;;;;;5032775;28;20196;-66
2021/12/26 09:21:54;;;;;;;4.93;3.87;;;;;;;;;;5017334;28;20409;-66
2021/12/26 09:24:21;;;;;;;7.90;3.93;;;;;;;;;;5032233;28;20469;-66
2021/12/26 09:26:47;;;;;;;5.30;4.03;;;;;;;;;;5017425;28;20411;-65
2021/12/26 09:29:13;;;;;;;4.83;4.10;;;;;;;;;;5032706;28;20413;-66
2021/12/26 09:31:39;;;;;;;4.77;3.97;;;;;;;;;;5032345;28;20986;-66
2021/12/26 09:34:05;;;;;;;5.77;4.17;;;;;;;;;;5017554;28;20761;-66
2021/12/26 09:36:32;;;;;;;5.50;4.23;;;;;;;;;;5032390;28;20415;-65
2021/12/26 09:38:58;;;;;;;5.80;4.27;;;;;;;;;;5032251;28;20652;-66
2021/12/26 09:41:24;;;;;;;6.63;4.20;;;;;;;;;;5032036;28;20439;-66
2021/12/26 09:43:50;;;;;;;6.90;4.97;;;;;;;;;;5032063;28;20554;-65
2021/12/26 09:46:16;;;;;;;5.60;4.10;;;;;;;;;;5032036;28;20267;-65
2021/12/26 09:48:42;;;;;;;5.20;3.90;;;;;;;;;;5016877;28;20524;-65
2021/12/26 09:51:08;;;;;;;4.40;4.00;;;;;;;;;;5016781;28;20214;-66
2021/12/26 09:53:38;;;;;;;5.30;4.00;;;;;;;;;;5017268;28;20755;-65
2021/12/26 09:56:06;;;;;;;5.17;4.20;;;;;;;;;;5032112;28;20245;-65
2021/12/26 09:58:32;;;;;;;5.97;4.60;;;;;;;;;;5032078;28;20789;-66
2021/12/26 10:00:58;;;;;;;5.73;4.00;;;;;;;;;;5016937;28;20459;-65
2021/12/26 10:03:33;;;;;;;6.13;4.13;;;;;;;;;;5017240;28;20770;-68
2021/12/26 10:06:10;;;;;;;6.70;4.50;;;;;;;;;;5031737;28;20533;-64
2021/12/26 10:08:50;;;;;;;6.00;4.50;;;;;;;;;;5032251;28;20980;-65
2021/12/26 10:11:18;;;;;;;6.40;5.03;;;;;;;;;;5016635;28;20818;-66
2021/12/26 10:13:46;;;;;;;5.20;4.50;;;;;;;;;;5016765;28;20418;-66
2021/12/26 10:16:14;;;;;;;6.13;4.70;;;;;;;;;;5016389;28;20408;-64
2021/12/26 10:18:41;;;;;;;5.83;4.40;;;;;;;;;;5016570;28;20417;-64
2021/12/26 10:21:25;;;;;;;6.77;5.40;;;;;;;;;;5031914;28;20504;-65
2021/12/26 10:23:52;;;;;;;6.70;5.23;;;;;;;;;;5016506;28;20411;-66
2021/12/26 10:26:26;;;;;;;8.37;5.60;;;;;;;;;;5016341;28;20490;-64
2021/12/26 10:29:04;;;;;;;8.10;5.20;;;;;;;;;;5015280;28;20465;-64
2021/12/26 10:31:30;;;;;;;6.57;4.53;;;;;;;;;;5031447;28;20541;-65
2021/12/26 10:33:56;;;;;;;6.83;4.87;;;;;;;;;;5031341;28;20442;-64
2021/12/26 10:36:22;;;;;;;8.03;5.40;;;;;;;;;;5031369;28;20180;-63
2021/12/26 10:39:08;;;;;;;4.80;4.30;;;;;;;;;;5015956;28;20414;-65
2021/12/26 10:41:40;;;;;;;5.97;4.60;;;;;;;;;;5031331;28;20236;-65
2021/12/26 10:44:06;;;;;;;5.70;4.80;;;;;;;;;;5016714;28;20800;-65
2021/12/26 10:46:32;;;;;;;7.17;5.03;;;;;;;;;;5015978;28;20504;-65
2021/12/26 10:49:17;;;;;;;8.73;4.43;;;;;;;;;;5016016;28;20192;-65
2021/12/26 10:51:43;;;;;;;8.33;5.23;;;;;;;;;;5031219;28;20219;-63
2021/12/26 10:54:17;;;;;;;5.90;4.63;;;;;;;;;;5016375;28;20501;-64
2021/12/26 10:57:01;;;;;;;5.03;4.50;;;;;;;;;;5016127;28;20179;-64
2021/12/26 10:59:27;;;;;;;5.37;4.70;;;;;;;;;;5015957;28;20466;-64
2021/12/26 11:01:54;;;;;;;6.80;4.63;;;;;;;;;;5015790;28;20802;-64
2021/12/26 11:04:21;;;;;;;8.17;4.77;;;;;;;;;;5030610;28;20195;-64
2021/12/26 11:07:01;;;;;;;7.57;5.47;;;;;;;;;;5016185;28;20485;-64
2021/12/26 11:09:27;;;;;;;6.07;4.70;;;;;;;;;;5030440;28;20442;-64
2021/12/26 11:11:59;;;;;;;6.60;4.60;;;;;;;;;;5015356;28;20455;-64
2021/12/26 11:14:25;;;;;;;5.20;4.70;;;;;;;;;;5030612;28;20413;-64
2021/12/26 11:16:51;;;;;;;6.07;4.73;;;;;;;;;;5030518;28;20787;-64
2021/12/26 11:19:17;;;;;;;8.77;5.73;;;;;;;;;;5030104;28;20415;-64
2021/12/26 11:21:43;;;;;;;6.50;5.03;;;;;;;;;;5015230;28;20253;-64
2021/12/26 11:24:09;;;;;;;5.00;4.40;;;;;;;;;;5015199;28;20241;-64
2021/12/26 11:26:35;;;;;;;6.37;5.20;;;;;;;;;;5030798;28;20502;-64
2021/12/26 11:29:01;;;;;;;6.33;5.50;;;;;;;;;;5015015;28;20184;-64
2021/12/26 11:31:29;;;;;;;5.70;4.90;;;;;;;;;;5030427;28;20549;-64
2021/12/26 11:33:59;;;;;;;6.17;4.80;;;;;;;;;;5015303;28;20438;-63
2021/12/26 11:36:29;;;;;;;6.20;5.10;;;;;;;;;;5015442;28;20403;-64
2021/12/26 11:38:57;;;;;;;7.33;5.57;;;;;;;;;;5015348;28;20414;-64
2021/12/26 11:41:29;;;;;;;7.50;5.73;;;;;;;;;;5030888;28;20489;-66
2021/12/26 11:43:58;;;;;;;10.57;6.00;;;;;;;;;;5031292;28;20407;-65
2021/12/26 11:46:33;;;;;;;7.13;5.63;;;;;;;;;;5030953;28;20415;-64
2021/12/26 11:49:09;;;;;;;9.90;5.90;;;;;;;;;;5015795;28;20478;-63
2021/12/26 11:51:44;;;;;;;8.93;5.67;;;;;;;;;;5014687;28;20954;-63
2021/12/26 11:54:12;;;;;;;7.70;5.07;;;;;;;;;;5030170;28;20510;-63
2021/12/26 11:56:45;;;;;;;7.83;5.37;;;;;;;;;;5014871;28;20415;-63
2021/12/26 11:59:30;;;;;;;8.17;6.00;;;;;;;;;;5015118;28;20431;-63
2021/12/26 12:01:56;;;;;;;9.70;6.03;;;;;;;;;;5014925;28;20891;-63
2021/12/26 12:04:23;;;;;;;6.20;5.37;;;;;;;;;;5029995;28;20526;-63
2021/12/26 12:06:50;;;;;;;9.87;5.23;;;;;;;;;;5029976;28;20215;-63
2021/12/26 12:09:23;;;;;;;8.73;5.93;;;;;;;;;;5015311;28;20421;-63
2021/12/26 12:12:01;;;;;;;8.40;6.03;;;;;;;;;;5014558;28;20500;-63
2021/12/26 12:14:46;;;;;;;7.57;5.70;;;;;;;;;;5014569;28;20407;-63
2021/12/26 12:17:16;;;;;;;7.67;5.87;;;;;;;;;;5029958;28;20411;-63
2021/12/26 12:20:02;;;;;;;7.80;6.00;;;;;;;;;;5029854;28;20434;-64
2021/12/26 12:22:28;;;;;;;8.10;5.33;;;;;;;;;;5006496;28;20454;-63
2021/12/26 12:24:54;;;;;;;8.53;6.23;;;;;;;;;;5015378;28;20697;-63
2021/12/26 12:27:22;;;;;;;7.50;5.90;;;;;;;;;;5014709;28;20175;-63
2021/12/26 12:29:52;;;;;;;11.50;6.33;;;;;;;;;;5014544;28;20192;-63
2021/12/26 12:32:22;;;;;;;8.73;6.77;;;;;;;;;;5029638;28;20536;-63
2021/12/26 12:34:51;;;;;;;10.60;6.63;;;;;;;;;;5014268;28;20743;-63
2021/12/26 12:37:36;;;;;;;7.50;6.20;;;;;;;;;;5014435;28;20406;-63
2021/12/26 12:40:08;;;;;;;7.67;6.20;;;;;;;;;;5029396;28;20204;-62
2021/12/26 12:42:34;;;;;;;6.73;5.93;;;;;;;;;;5014368;28;20410;-63
2021/12/26 12:45:00;;;;;;;8.37;6.17;;;;;;;;;;5014106;28;21000;-62
2021/12/26 12:47:26;;;;;;;10.20;7.10;;;;;;;;;;5029483;28;20184;-62
2021/12/26 12:50:01;;;;;;;9.33;6.47;;;;;;;;;;5014654;28;20203;-63
2021/12/26 12:52:39;;;;;;;8.70;6.23;;;;;;;;;;5032451;28;20191;-63
2021/12/26 12:55:07;;;;;;;9.10;6.30;;;;;;;;;;5018619;28;20183;-63
2021/12/26 12:57:37;;;;;;;8.10;6.50;;;;;;;;;;5033754;28;20426;-63
2021/12/26 13:00:26;;;;;;;8.30;6.23;;;;;;;;;;5018304;28;20640;-63
2021/12/26 13:02:53;;;;;;;9.90;6.23;;;;;;;;;;5017881;28;20192;-63
2021/12/26 13:05:29;;;;;;;7.90;6.53;;;;;;;;;;5018181;28;20443;-61
2021/12/26 13:08:06;;;;;;;7.73;6.13;;;;;;;;;;5033031;28;20195;-62
2021/12/26 13:10:32;;;;;;;8.63;6.57;;;;;;;;;;5018546;28;20203;-63
2021/12/26 13:13:11;;;;;;;9.93;6.27;;;;;;;;;;5033198;28;20421;-61
2021/12/26 13:15:48;;;;;;;8.10;6.57;;;;;;;;;;5018577;28;20549;-63
2021/12/26 13:18:14;;;;;;;9.23;7.07;;;;;;;;;;5017712;28;20502;-62
2021/12/26 13:20:40;;;;;;;8.37;6.33;;;;;;;;;;5058026;23;20870;-66
2021/12/26 13:23:06;;;;;;;9.13;6.47;;;;;;;;;;5071123;28;20176;-67
2021/12/26 13:25:34;;;;;;;8.50;6.80;;;;;;;;;;5070132;28;20699;-66
2021/12/26 13:28:03;;;;;;;7.93;6.47;;;;;;;;;;5071587;28;20171;-66
2021/12/26 13:30:29;;;;;;;9.50;7.10;;;;;;;;;;5069597;28;20548;-66
2021/12/26 13:32:55;;;;;;;9.63;7.07;;;;;;;;;;5070928;28;20410;-66
2021/12/26 13:35:32;;;;;;;9.63;6.83;;;;;;;;;;5070923;28;20176;-66
2021/12/26 13:37:58;;;;;;;9.53;7.13;;;;;;;;;;5071863;28;20425;-66
2021/12/26 13:40:24;;;;;;;8.00;6.83;;;;;;;;;;5052638;28;20448;-66
2021/12/26 13:42:51;;;;;;;9.83;7.50;;;;;;;;;;5057349;28;20497;-65
2021/12/26 13:45:27;;;;;;;8.43;6.37;;;;;;;;;;5056098;28;20175;-67
2021/12/26 13:47:53;;;;;;;9.40;7.63;;;;;;;;;;5072032;28;20167;-65
2021/12/26 13:50:19;;;;;;;9.00;7.03;;;;;;;;;;5055303;28;20456;-67
2021/12/26 13:52:45;;;;;;;9.50;7.10;;;;;;;;;;5055835;28;20203;-65
2021/12/26 13:55:11;;;;;;;14.17;10.30;;;;;;;;;;5071260;28;20187;-66
2021/12/26 13:57:37;;;;;;;11.27;7.50;;;;;;;;;;5071390;28;20183;-66
2021/12/26 14:00:05;;;;;;;20.77;11.20;;;;;;;;;;5055029;28;20191;-66
2021/12/26 14:02:32;;;;;;;15.77;9.50;;;;;;;;;;5053927;28;20411;-67
2021/12/26 14:05:00;;;;;;;12.37;7.93;;;;;;;;;;5070309;28;20183;-65
2021/12/26 14:07:31;;;;;;;11.77;7.60;;;;;;;;;;5054891;28;20171;-65
2021/12/26 14:09:59;;;;;;;22.40;15.37;;;;;;;;;;5046512;28;20938;-66
2021/12/26 14:12:34;;;;;;;17.37;13.97;;;;;;;;;;5044536;28;20457;-65
2021/12/26 14:15:30;;;;;;;9.73;7.83;;;;;;;;;;5045405;28;20155;-66
2021/12/26 14:18:04;;;;;;;106.53;69.60;;;;;;;;;;5067785;28;20235;-66
2021/12/26 14:20:48;;;;;;;35.20;23.70;;;;;;;;;;5053356;28;20221;-66
2021/12/26 14:23:41;;;;;;;10.80;7.80;;;;;;;;;;5054210;28;20201;-66
2021/12/26 14:26:08;;;;;;;13.53;10.57;;;;;;;;;;5051478;28;20188;-67
2021/12/26 14:28:38;;;;;;;10.03;7.70;;;;;;;;;;5064908;28;20183;-66
2021/12/26 14:31:04;;;;;;;10.23;7.40;;;;;;;;;;5054978;28;20246;-66
2021/12/26 14:33:45;;;;;;;11.23;8.07;;;;;;;;;;5036720;28;20175;-66
2021/12/26 14:36:11;;;;;;;11.20;9.43;;;;;;;;;;5052358;28;20175;-66
2021/12/26 14:38:37;;;;;;;10.47;8.30;;;;;;;;;;5052180;28;20183;-66
2021/12/26 14:41:07;;;;;;;11.37;8.60;;;;;;;;;;5051611;28;20213;-66
2021/12/26 14:43:33;;;;;;;10.63;8.40;;;;;;;;;;5036230;28;20410;-65
2021/12/26 14:46:02;;;;;;;10.60;7.97;;;;;;;;;;5035784;28;20886;-65
2021/12/26 14:48:33;;;;;;;11.73;8.87;;;;;;;;;;5051642;28;20179;-65
2021/12/26 14:51:09;;;;;;;12.80;8.93;;;;;;;;;;5035793;28;20984;-65